Time;durP1;ratioP1;P1;durP2;ratioP2;P2;SDS_P1;SDS_P2;PMS_P1;PMS_P2;Temp;Humidity;BMP_temperature;BMP_pressure;BME280_temperature;BME280_humidity;BME280_pressure;Samples;Min_cycle;Max_cycle;Signal;HPM_P1;HPM_P2
2022/07/28 00:00:44;;;;;;;;;;;;;;;;;;4991614;28;19968;-43
2022/07/28 00:03:10;;;;;;;;;;;;;;;;;;4988282;28;19964;-45
2022/07/28 00:05:37;;;;;;;;;;;;;;;;;;5007377;28;20278;-46
2022/07/28 00:08:03;;;;;;;;;;;;;;;;;;5007916;28;19914;-44
2022/07/28 00:10:31;;;;;;;;;;;;;;;;;;5008818;28;20022;-43
2022/07/28 00:12:58;;;;;;;;;;;;;;;;;;5008795;28;19913;-44
2022/07/28 00:15:24;;;;;;;;;;;;;;;;;;5008750;28;19913;-44
2022/07/28 00:17:50;;;;;;;;;;;;;;;;;;5008877;28;19913;-45
2022/07/28 00:20:16;;;;;;;;;;;;;;;;;;5008786;28;19918;-44
2022/07/28 00:22:42;;;;;;;;;;;;;;;;;;5008130;28;19917;-47
2022/07/28 00:25:09;;;;;;;;;;;;;;;;;;5008332;28;19929;-44
2022/07/28 00:27:34;;;;;;;;;;;;;;;;;;5007912;28;19971;-46
2022/07/28 00:30:01;;;;;;;;;;;;;;;;;;5007778;28;19918;-44
2022/07/28 00:32:26;;;;;;;;;;;;;;;;;;5008355;28;20322;-43
2022/07/28 00:34:52;;;;;;;;;;;;;;;;;;5008073;28;19909;-46
2022/07/28 00:37:18;;;;;;;;;;;;;;;;;;5009018;28;19944;-44
2022/07/28 00:39:44;;;;;;;;;;;;;;;;;;5007955;28;19913;-45
2022/07/28 00:42:11;;;;;;;;;;;;;;;;;;5008049;28;19909;-44
2022/07/28 00:44:40;;;;;;;;;;;;;;;;;;5007275;28;19910;-46
2022/07/28 00:47:07;;;;;;;;;;;;;;;;;;5008232;28;19909;-43
2022/07/28 00:49:33;;;;;;;;;;;;;;;;;;5007785;28;19909;-43
2022/07/28 00:51:59;;;;;;;;;;;;;;;;;;5008003;28;20008;-43
2022/07/28 00:54:25;;;;;;;;;;;;;;;;;;5008359;28;19973;-47
2022/07/28 00:56:51;;;;;;;;;;;;;;;;;;5008277;28;19913;-44
2022/07/28 00:59:17;;;;;;;;;;;;;;;;;;5008429;28;19941;-43
2022/07/28 01:01:43;;;;;;;;;;;;;;;;;;5007685;28;19909;-44
2022/07/28 01:04:09;;;;;;;;;;;;;;;;;;5007680;28;19915;-44
2022/07/28 01:06:35;;;;;;;;;;;;;;;;;;5007781;28;19913;-44
2022/07/28 01:09:01;;;;;;;;;;;;;;;;;;5007734;28;20374;-45
2022/07/28 01:11:27;;;;;;;;;;;;;;;;;;5007649;28;19914;-45
2022/07/28 01:13:53;;;;;;;;;;;;;;;;;;5007484;28;19916;-45
2022/07/28 01:16:19;;;;;;;;;;;;;;;;;;5008057;28;19913;-44
2022/07/28 01:18:46;;;;;;;;;;;;;;;;;;5007254;28;19914;-43
2022/07/28 01:21:12;;;;;;;;;;;;;;;;;;5007357;28;20375;-44
2022/07/28 01:23:38;;;;;;;;;;;;;;;;;;5007397;28;19910;-44
2022/07/28 01:26:05;;;;;;;;;;;;;;;;;;5007608;28;19913;-44
2022/07/28 01:28:31;;;;;;;;;;;;;;;;;;5007182;28;19925;-43
2022/07/28 01:30:57;;;;;;;;;;;;;;;;;;5007419;28;19910;-45
2022/07/28 01:33:23;;;;;;;;;;;;;;;;;;5005971;28;19916;-43
2022/07/28 01:35:49;;;;;;;;;;;;;;;;;;5007699;28;20000;-43
2022/07/28 01:38:15;;;;;;;;;;;;;;;;;;4997743;28;19914;-44
2022/07/28 01:40:41;;;;;;;;;;;;;;;;;;4987722;28;19917;-46
2022/07/28 01:43:07;;;;;;;;;;;;;;;;;;4987681;28;19980;-44
2022/07/28 01:45:33;;;;;;;;;;;;;;;;;;4987600;28;19910;-43
2022/07/28 01:47:59;;;;;;;;;;;;;;;;;;4987201;28;19910;-43
2022/07/28 01:50:25;;;;;;;;;;;;;;;;;;4987740;28;20389;-44
2022/07/28 01:52:51;;;;;;;;;;;;;;;;;;4987644;28;19917;-43
2022/07/28 01:55:17;;;;;;;;;;;;;;;;;;4987797;28;19916;-44
2022/07/28 01:57:43;;;;;;;;;;;;;;;;;;4987422;28;19917;-46
2022/07/28 02:00:10;;;;;;;;;;;;;;;;;;4987299;28;19910;-45
2022/07/28 02:02:36;;;;;;;;;;;;;;;;;;4987071;28;19952;-44
2022/07/28 02:05:02;;;;;;;;;;;;;;;;;;4987338;28;19952;-45
2022/07/28 02:07:28;;;;;;;;;;;;;;;;;;4987347;28;19914;-42
2022/07/28 02:09:53;;;;;;;;;;;;;;;;;;4987003;28;19910;-44
2022/07/28 02:12:19;;;;;;;;;;;;;;;;;;4987754;28;20044;-43
2022/07/28 02:14:45;;;;;;;;;;;;;;;;;;4987296;28;19913;-43
2022/07/28 02:17:11;;;;;;;;;;;;;;;;;;4987148;28;19960;-47
2022/07/28 02:19:37;;;;;;;;;;;;;;;;;;4986965;28;19935;-44
2022/07/28 02:22:03;;;;;;;;;;;;;;;;;;4987335;28;19961;-44
2022/07/28 02:24:29;;;;;;;;;;;;;;;;;;4987137;28;19910;-44
2022/07/28 02:26:55;;;;;;;;;;;;;;;;;;4986894;28;19914;-44
2022/07/28 02:29:21;;;;;;;;;;;;;;;;;;4987612;28;20008;-42
2022/07/28 02:31:49;;;;;;;;;;;;;;;;;;4987109;28;19918;-44
2022/07/28 02:34:15;;;;;;;;;;;;;;;;;;4986978;28;20427;-44
2022/07/28 02:36:41;;;;;;;;;;;;;;;;;;4987079;28;19921;-46
2022/07/28 02:39:06;;;;;;;;;;;;;;;;;;5003857;28;19909;-43
2022/07/28 02:41:32;;;;;;;;;;;;;;;;;;5006578;28;19913;-46
2022/07/28 02:43:58;;;;;;;;;;;;;;;;;;5006633;28;19978;-45
2022/07/28 02:46:24;;;;;;;;;;;;;;;;;;5006499;28;19910;-43
2022/07/28 02:48:50;;;;;;;;;;;;;;;;;;5006853;28;19914;-44
2022/07/28 02:51:16;;;;;;;;;;;;;;;;;;5006487;28;19939;-43
2022/07/28 02:53:42;;;;;;;;;;;;;;;;;;5006577;28;19975;-45
2022/07/28 02:56:08;;;;;;;;;;;;;;;;;;5006403;28;19913;-44
2022/07/28 02:58:34;;;;;;;;;;;;;;;;;;5006201;28;19955;-45
2022/07/28 03:01:00;;;;;;;;;;;;;;;;;;5006198;28;19909;-44
2022/07/28 03:03:26;;;;;;;;;;;;;;;;;;5006664;28;19913;-43
2022/07/28 03:05:52;;;;;;;;;;;;;;;;;;5006641;28;19972;-42
2022/07/28 03:08:18;;;;;;;;;;;;;;;;;;5010301;28;19914;-43
2022/07/28 03:10:44;;;;;;;;;;;;;;;;;;5009704;28;19914;-43
2022/07/28 03:13:09;;;;;;;;;;;;;;;;;;5009936;28;19909;-44
2022/07/28 03:15:35;;;;;;;;;;;;;;;;;;5009697;28;19913;-45
2022/07/28 03:18:01;;;;;;;;;;;;;;;;;;5010004;28;19916;-47
2022/07/28 03:20:27;;;;;;;;;;;;;;;;;;5010054;28;19959;-45
2022/07/28 03:22:54;;;;;;;;;;;;;;;;;;5009692;28;19955;-46
2022/07/28 03:25:20;;;;;;;;;;;;;;;;;;5010802;28;19909;-46
2022/07/28 03:27:46;;;;;;;;;;;;;;;;;;5009637;28;20394;-44
2022/07/28 03:30:12;;;;;;;;;;;;;;;;;;5009435;28;19937;-45
2022/07/28 03:32:38;;;;;;;;;;;;;;;;;;5009327;28;19970;-48
2022/07/28 03:35:04;;;;;;;;;;;;;;;;;;5009770;28;20337;-47
2022/07/28 03:37:30;;;;;;;;;;;;;;;;;;5005879;28;19961;-45
2022/07/28 03:39:56;;;;;;;;;;;;;;;;;;4989831;28;19957;-43
2022/07/28 03:42:22;;;;;;;;;;;;;;;;;;4990691;28;19956;-42
2022/07/28 03:44:49;;;;;;;;;;;;;;;;;;4990227;28;19976;-43
2022/07/28 03:47:15;;;;;;;;;;;;;;;;;;4990077;28;19962;-43
2022/07/28 03:49:41;;;;;;;;;;;;;;;;;;4989579;28;20422;-46
2022/07/28 03:52:07;;;;;;;;;;;;;;;;;;4989812;28;19937;-44
2022/07/28 03:54:33;;;;;;;;;;;;;;;;;;4989443;28;19972;-46
2022/07/28 03:56:59;;;;;;;;;;;;;;;;;;4989565;28;19956;-45
2022/07/28 03:59:25;;;;;;;;;;;;;;;;;;4989795;28;20070;-43
2022/07/28 04:01:51;;;;;;;;;;;;;;;;;;4989889;28;19921;-44
2022/07/28 04:04:17;;;;;;;;;;;;;;;;;;4989789;28;19910;-44
2022/07/28 04:06:43;;;;;;;;;;;;;;;;;;4989432;28;19944;-43
2022/07/28 04:09:09;;;;;;;;;;;;;;;;;;4989466;28;19914;-43
2022/07/28 04:11:34;;;;;;;;;;;;;;;;;;4988946;28;19914;-43
2022/07/28 04:14:00;;;;;;;;;;;;;;;;;;4989416;28;19909;-44
2022/07/28 04:16:26;;;;;;;;;;;;;;;;;;4989290;28;19917;-44
2022/07/28 04:18:52;;;;;;;;;;;;;;;;;;4989086;28;19976;-43
2022/07/28 04:21:18;;;;;;;;;;;;;;;;;;4989759;28;19910;-44
2022/07/28 04:23:44;;;;;;;;;;;;;;;;;;4989040;28;20009;-44
2022/07/28 04:26:10;;;;;;;;;;;;;;;;;;4989094;28;19964;-55
2022/07/28 04:28:36;;;;;;;;;;;;;;;;;;4988746;28;19937;-53
2022/07/28 04:31:02;;;;;;;;;;;;;;;;;;4988938;28;19913;-55
2022/07/28 04:33:29;;;;;;;;;;;;;;;;;;4989041;28;20027;-54
2022/07/28 04:35:55;;;;;;;;;;;;;;;;;;5003076;28;19917;-54
2022/07/28 04:38:21;;;;;;;;;;;;;;;;;;4994446;28;20840;-54
2022/07/28 04:40:47;;;;;;;;;;;;;;;;;;4989376;28;20008;-53
2022/07/28 04:43:13;;;;;;;;;;;;;;;;;;4999406;28;19917;-53
2022/07/28 04:45:39;;;;;;;;;;;;;;;;;;4994007;28;19973;-53
2022/07/28 04:48:05;;;;;;;;;;;;;;;;;;5000705;28;20583;-54
2022/07/28 04:50:31;;;;;;;;;;;;;;;;;;4988465;28;20012;-52
2022/07/28 04:52:57;;;;;;;;;;;;;;;;;;4996987;28;19944;-54
2022/07/28 04:55:23;;;;;;;;;;;;;;;;;;5007237;28;19929;-53
2022/07/28 04:57:49;;;;;;;;;;;;;;;;;;5007477;28;20406;-53
2022/07/28 05:00:15;;;;;;;;;;;;;;;;;;5006593;28;19921;-53
2022/07/28 05:02:41;;;;;;;;;;;;;;;;;;5005966;28;19963;-54
2022/07/28 05:05:07;;;;;;;;;;;;;;;;;;5007159;28;19932;-53
2022/07/28 05:07:33;;;;;;;;;;;;;;;;;;5007836;28;19910;-52
2022/07/28 05:09:59;;;;;;;;;;;;;;;;;;5007885;28;19960;-54
2022/07/28 05:12:25;;;;;;;;;;;;;;;;;;5007770;28;20410;-53
2022/07/28 05:14:51;;;;;;;;;;;;;;;;;;5007983;28;19920;-54
2022/07/28 05:17:18;;;;;;;;;;;;;;;;;;5008056;28;19914;-53
2022/07/28 05:19:44;;;;;;;;;;;;;;;;;;4988264;28;20028;-53
2022/07/28 05:22:10;;;;;;;;;;;;;;;;;;4988121;28;20009;-53
2022/07/28 05:24:36;;;;;;;;;;;;;;;;;;4987822;28;19964;-50
2022/07/28 05:27:01;;;;;;;;;;;;;;;;;;4992928;28;19917;-53
2022/07/28 05:29:27;;;;;;;;;;;;;;;;;;4987584;28;20009;-51
2022/07/28 05:31:54;;;;;;;;;;;;;;;;;;4987771;28;20031;-53
2022/07/28 05:34:20;;;;;;;;;;;;;;;;;;4988528;28;19910;-54
2022/07/28 05:36:46;;;;;;;;;;;;;;;;;;4987530;28;19934;-53
2022/07/28 05:39:12;;;;;;;;;;;;;;;;;;4987667;28;19914;-53
2022/07/28 05:41:38;;;;;;;;;;;;;;;;;;5006760;28;19929;-54
2022/07/28 05:44:03;;;;;;;;;;;;;;;;;;5006970;28;19913;-54
2022/07/28 05:46:29;;;;;;;;;;;;;;;;;;5007221;28;20007;-54
2022/07/28 05:48:55;;;;;;;;;;;;;;;;;;5003454;28;19967;-53
2022/07/28 05:51:21;;;;;;;;;;;;;;;;;;5008443;28;19949;-52
2022/07/28 05:53:47;;;;;;;;;;;;;;;;;;5008242;28;19924;-54
2022/07/28 05:56:13;;;;;;;;;;;;;;;;;;5003408;28;19913;-54
2022/07/28 05:58:39;;;;;;;;;;;;;;;;;;4995647;28;19914;-54
2022/07/28 06:01:05;;;;;;;;;;;;;;;;;;4994301;28;19924;-54
2022/07/28 06:03:31;;;;;;;;;;;;;;;;;;5006141;28;19914;-54
2022/07/28 06:05:57;;;;;;;;;;;;;;;;;;5005300;28;19921;-53
2022/07/28 06:08:23;;;;;;;;;;;;;;;;;;5006947;28;19941;-55
2022/07/28 06:11:00;;;;;;;;;;;;;;;;;;5006990;28;19917;-55
2022/07/28 06:13:26;;;;;;;;;;;;;;;;;;5007017;28;19917;-54
2022/07/28 06:15:52;;;;;;;;;;;;;;;;;;5006468;28;19913;-54
2022/07/28 06:18:18;;;;;;;;;;;;;;;;;;5001869;28;19960;-53
2022/07/28 06:20:44;;;;;;;;;;;;;;;;;;5005927;28;20516;-54
2022/07/28 06:23:10;;;;;;;;;;;;;;;;;;5006528;28;19948;-54
2022/07/28 06:25:36;;;;;;;;;;;;;;;;;;5006790;28;19931;-54
2022/07/28 06:28:02;;;;;;;;;;;;;;;;;;5006685;28;19917;-55
2022/07/28 06:30:28;;;;;;;;;;;;;;;;;;5006842;28;19916;-53
2022/07/28 06:32:54;;;;;;;;;;;;;;;;;;5006740;28;19917;-51
2022/07/28 06:35:20;;;;;;;;;;;;;;;;;;5004737;28;20000;-53
2022/07/28 06:37:46;;;;;;;;;;;;;;;;;;5006976;28;19917;-53
2022/07/28 06:40:12;;;;;;;;;;;;;;;;;;5005709;28;19914;-54
2022/07/28 06:42:38;;;;;;;;;;;;;;;;;;5010576;28;19918;-54
2022/07/28 06:45:04;;;;;;;;;;;;;;;;;;5010408;28;19916;-54
2022/07/28 06:47:30;;;;;;;;;;;;;;;;;;5004098;28;19914;-55
2022/07/28 06:49:56;;;;;;;;;;;;;;;;;;4990833;28;19917;-54
2022/07/28 06:52:22;;;;;;;;;;;;;;;;;;4990877;28;19921;-54
2022/07/28 06:54:50;;;;;;;;;;;;;;;;;;4990696;28;19946;-53
2022/07/28 06:57:16;;;;;;;;;;;;;;;;;;4990458;28;19909;-55
2022/07/28 06:59:42;;;;;;;;;;;;;;;;;;4989669;28;19910;-55
2022/07/28 07:02:08;;;;;;;;;;;;;;;;;;4990403;28;19976;-56
2022/07/28 07:04:34;;;;;;;;;;;;;;;;;;5008687;28;19953;-56
2022/07/28 07:07:00;;;;;;;;;;;;;;;;;;4999717;28;20314;-56
2022/07/28 07:09:26;;;;;;;;;;;;;;;;;;5002502;28;19913;-57
2022/07/28 07:11:52;;;;;;;;;;;;;;;;;;5002604;28;19968;-56
2022/07/28 07:14:18;;;;;;;;;;;;;;;;;;5009821;28;19917;-56
2022/07/28 07:16:44;;;;;;;;;;;;;;;;;;4990837;28;19980;-56
2022/07/28 07:19:10;;;;;;;;;;;;;;;;;;4990280;28;19910;-57
2022/07/28 07:21:36;;;;;;;;;;;;;;;;;;4989806;28;19956;-57
2022/07/28 07:24:02;;;;;;;;;;;;;;;;;;4990776;28;19913;-56
2022/07/28 07:26:28;;;;;;;;;;;;;;;;;;4990822;28;20009;-55
2022/07/28 07:28:54;;;;;;;;;;;;;;;;;;5008415;28;19991;-56
2022/07/28 07:31:20;;;;;;;;;;;;;;;;;;5009560;28;19920;-56
2022/07/28 07:33:46;;;;;;;;;;;;;;;;;;5009500;28;19984;-56
2022/07/28 07:36:12;;;;;;;;;;;;;;;;;;5009491;28;19910;-52
2022/07/28 07:38:38;;;;;;;;;;;;;;;;;;5009187;28;19953;-54
2022/07/28 07:41:04;;;;;;;;;;;;;;;;;;5009570;28;20421;-51
2022/07/28 07:43:30;;;;;;;;;;;;;;;;;;4991374;28;19953;-55
2022/07/28 07:45:56;;;;;;;;;;;;;;;;;;4981081;28;19968;-54
2022/07/28 07:48:22;;;;;;;;;;;;;;;;;;4980092;28;20150;-53
2022/07/28 07:50:47;;;;;;;;;;;;;;;;;;4983998;28;19984;-53
2022/07/28 07:53:13;;;;;;;;;;;;;;;;;;4998361;28;19928;-53
2022/07/28 07:55:39;;;;;;;;;;;;;;;;;;4992930;28;19914;-52
2022/07/28 07:58:05;;;;;;;;;;;;;;;;;;5009174;28;19964;-52
2022/07/28 08:00:31;;;;;;;;;;;;;;;;;;4997906;28;19921;-53
2022/07/28 08:02:57;;;;;;;;;;;;;;;;;;4989179;28;19921;-54
2022/07/28 08:05:23;;;;;;;;;;;;;;;;;;4990653;28;19918;-53
2022/07/28 08:07:49;;;;;;;;;;;;;;;;;;5003010;28;19914;-53
2022/07/28 08:10:15;;;;;;;;;;;;;;;;;;5007534;28;19917;-52
2022/07/28 08:12:41;;;;;;;;;;;;;;;;;;5007643;28;19972;-53
2022/07/28 08:15:07;;;;;;;;;;;;;;;;;;4991438;28;19932;-53
2022/07/28 08:17:33;;;;;;;;;;;;;;;;;;4995184;28;20005;-53
2022/07/28 08:19:59;;;;;;;;;;;;;;;;;;4993991;28;19921;-54
2022/07/28 08:22:25;;;;;;;;;;;;;;;;;;5023852;28;19917;-53
2022/07/28 08:24:51;;;;;;;;;;;;;;;;;;4995267;28;20428;-49
2022/07/28 08:27:17;;;;;;;;;;;;;;;;;;4996418;28;19913;-54
2022/07/28 08:29:43;;;;;;;;;;;;;;;;;;5006312;28;19929;-50
2022/07/28 08:32:09;;;;;;;;;;;;;;;;;;4989285;28;19917;-53
2022/07/28 08:34:35;;;;;;;;;;;;;;;;;;4990939;28;19949;-51
2022/07/28 08:37:00;;;;;;;;;;;;;;;;;;4998432;28;19937;-52
2022/07/28 08:39:26;;;;;;;;;;;;;;;;;;4989164;28;19914;-50
2022/07/28 08:41:52;;;;;;;;;;;;;;;;;;4988894;28;19937;-53
2022/07/28 08:44:18;;;;;;;;;;;;;;;;;;5007353;28;20008;-53
2022/07/28 08:46:44;;;;;;;;;;;;;;;;;;5007184;28;19913;-52
2022/07/28 08:49:10;;;;;;;;;;;;;;;;;;5006746;28;19920;-51
2022/07/28 08:51:36;;;;;;;;;;;;;;;;;;5006787;28;19913;-51
2022/07/28 08:54:08;;;;;;;;;;;;;;;;;;5002608;28;19913;-51
2022/07/28 08:56:34;;;;;;;;;;;;;;;;;;5006842;28;20056;-48
2022/07/28 08:59:00;;;;;;;;;;;;;;;;;;5007048;28;20004;-50
2022/07/28 09:01:26;;;;;;;;;;;;;;;;;;4994071;28;19914;-47
2022/07/28 09:03:52;;;;;;;;;;;;;;;;;;4986372;28;19914;-50
2022/07/28 09:06:18;;;;;;;;;;;;;;;;;;4995925;28;19914;-51
2022/07/28 09:08:44;;;;;;;;;;;;;;;;;;5003316;28;20542;-50
2022/07/28 09:11:10;;;;;;;;;;;;;;;;;;5002352;28;19917;-49
2022/07/28 09:13:36;;;;;;;;;;;;;;;;;;5000419;28;19914;-50
2022/07/28 09:16:02;;;;;;;;;;;;;;;;;;4986819;28;19921;-52
2022/07/28 09:18:28;;;;;;;;;;;;;;;;;;4992418;28;19917;-52
2022/07/28 09:20:54;;;;;;;;;;;;;;;;;;5007432;28;19967;-51
2022/07/28 09:23:21;;;;;;;;;;;;;;;;;;5006580;28;19913;-47
2022/07/28 09:25:47;;;;;;;;;;;;;;;;;;5003834;28;19914;-49
2022/07/28 09:28:13;;;;;;;;;;;;;;;;;;4992140;28;20382;-51
2022/07/28 09:30:40;;;;;;;;;;;;;;;;;;5006170;28;19914;-50
2022/07/28 09:33:06;;;;;;;;;;;;;;;;;;5007070;28;19925;-49
2022/07/28 09:35:32;;;;;;;;;;;;;;;;;;5007479;28;20396;-52
2022/07/28 09:37:58;;;;;;;;;;;;;;;;;;5007291;28;19917;-51
2022/07/28 09:40:23;;;;;;;;;;;;;;;;;;5007394;28;19914;-51
2022/07/28 09:42:53;;;;;;;;;;;;;;;;;;5004700;28;19913;-51
2022/07/28 09:45:19;;;;;;;;;;;;;;;;;;4989536;28;19945;-51
2022/07/28 09:47:44;;;;;;;;;;;;;;;;;;4988877;28;19918;-52
2022/07/28 09:50:10;;;;;;;;;;;;;;;;;;5001494;28;20006;-49
2022/07/28 09:52:36;;;;;;;;;;;;;;;;;;4989895;28;19941;-51
2022/07/28 09:55:02;;;;;;;;;;;;;;;;;;4987466;28;19910;-52
2022/07/28 09:57:28;;;;;;;;;;;;;;;;;;4987353;28;19983;-52
2022/07/28 09:59:54;;;;;;;;;;;;;;;;;;4998515;28;20007;-51
2022/07/28 10:02:20;;;;;;;;;;;;;;;;;;5007034;28;19910;-52
2022/07/28 10:04:46;;;;;;;;;;;;;;;;;;5005145;28;20007;-51
2022/07/28 10:07:18;;;;;;;;;;;;;;;;;;5001192;28;19913;-52
2022/07/28 10:09:44;;;;;;;;;;;;;;;;;;5007091;28;20334;-49
2022/07/28 10:12:10;;;;;;;;;;;;;;;;;;4998089;28;19925;-51
2022/07/28 10:14:36;;;;;;;;;;;;;;;;;;4986858;28;20005;-50
2022/07/28 10:17:04;;;;;;;;;;;;;;;;;;4993524;28;19910;-49
2022/07/28 10:19:30;;;;;;;;;;;;;;;;;;5000336;28;19917;-48
2022/07/28 10:21:56;;;;;;;;;;;;;;;;;;5007959;28;19956;-50
2022/07/28 10:24:22;;;;;;;;;;;;;;;;;;5004360;28;19947;-51
2022/07/28 10:26:48;;;;;;;;;;;;;;;;;;5013024;28;20420;-51
2022/07/28 10:29:14;;;;;;;;;;;;;;;;;;5003623;28;20668;-52
2022/07/28 10:31:40;;;;;;;;;;;;;;;;;;4998537;28;19922;-48
2022/07/28 10:34:06;;;;;;;;;;;;;;;;;;5013329;28;19917;-51
2022/07/28 10:36:32;;;;;;;;;;;;;;;;;;4998167;28;19922;-51
2022/07/28 10:38:58;;;;;;;;;;;;;;;;;;4999754;28;19921;-50
2022/07/28 10:41:24;;;;;;;;;;;;;;;;;;5005682;28;19913;-48
2022/07/28 10:43:50;;;;;;;;;;;;;;;;;;5012505;28;19913;-49
2022/07/28 10:46:16;;;;;;;;;;;;;;;;;;4994790;28;19910;-53
2022/07/28 10:48:42;;;;;;;;;;;;;;;;;;4993410;28;19925;-52
2022/07/28 10:51:08;;;;;;;;;;;;;;;;;;4993704;28;19918;-50
2022/07/28 10:53:34;;;;;;;;;;;;;;;;;;4993297;28;19913;-52
2022/07/28 10:56:00;;;;;;;;;;;;;;;;;;4993431;28;19914;-52
2022/07/28 10:58:26;;;;;;;;;;;;;;;;;;4993482;28;19959;-52
2022/07/28 11:00:51;;;;;;;;;;;;;;;;;;4993212;28;19940;-50
2022/07/28 11:03:17;;;;;;;;;;;;;;;;;;4997042;28;20008;-49
2022/07/28 11:05:44;;;;;;;;;;;;;;;;;;5013342;28;19914;-50
2022/07/28 11:08:10;;;;;;;;;;;;;;;;;;5012972;28;19914;-52
2022/07/28 11:10:36;;;;;;;;;;;;;;;;;;5011152;28;19917;-51
2022/07/28 11:13:01;;;;;;;;;;;;;;;;;;4999631;28;19949;-51
2022/07/28 11:15:28;;;;;;;;;;;;;;;;;;5001559;28;19968;-51
2022/07/28 11:17:53;;;;;;;;;;;;;;;;;;5012733;28;19924;-50
2022/07/28 11:20:19;;;;;;;;;;;;;;;;;;4999718;28;19914;-49
2022/07/28 11:22:45;;;;;;;;;;;;;;;;;;4993815;28;19913;-48
2022/07/28 11:30:50;;;;;;;;;;;;;;;;;;5000879;28;19928;-49
2022/07/28 11:33:16;;;;;;;;;;;;;;;;;;4987904;28;20294;-51
2022/07/28 11:35:42;;;;;;;;;;;;;;;;;;4995477;28;20379;-52
2022/07/28 11:38:08;;;;;;;;;;;;;;;;;;4998670;28;19924;-51
2022/07/28 11:40:34;;;;;;;;;;;;;;;;;;4989489;28;19910;-51
2022/07/28 11:43:00;;;;;;;;;;;;;;;;;;4994801;28;19921;-52
2022/07/28 11:45:26;;;;;;;;;;;;;;;;;;5009122;28;20003;-52
2022/07/28 11:47:52;;;;;;;;;;;;;;;;;;5009170;28;19909;-51
2022/07/28 11:50:18;;;;;;;;;;;;;;;;;;5008724;28;19924;-51
2022/07/28 11:52:44;;;;;;;;;;;;;;;;;;4997590;28;19933;-50
2022/07/28 11:55:10;;;;;;;;;;;;;;;;;;5000772;28;19918;-51
2022/07/28 11:57:36;;;;;;;;;;;;;;;;;;4992066;28;19913;-49
2022/07/28 12:00:02;;;;;;;;;;;;;;;;;;5018397;28;19909;-51
2022/07/28 12:02:28;;;;;;;;;;;;;;;;;;5018530;28;19925;-51
2022/07/28 12:04:54;;;;;;;;;;;;;;;;;;4988807;28;19909;-51
2022/07/28 12:07:20;;;;;;;;;;;;;;;;;;4988626;28;20346;-50
2022/07/28 12:09:46;;;;;;;;;;;;;;;;;;4991119;28;19914;-51
2022/07/28 12:12:12;;;;;;;;;;;;;;;;;;4994102;28;20008;-51
2022/07/28 12:14:38;;;;;;;;;;;;;;;;;;5007830;28;19917;-51
2022/07/28 12:17:04;;;;;;;;;;;;;;;;;;4999509;28;19914;-47
2022/07/28 12:19:31;;;;;;;;;;;;;;;;;;4988063;28;19991;-48
2022/07/28 12:21:57;;;;;;;;;;;;;;;;;;4987798;28;19963;-50
2022/07/28 12:24:23;;;;;;;;;;;;;;;;;;4988758;28;20339;-50
2022/07/28 12:26:48;;;;;;;;;;;;;;;;;;4988219;28;19960;-49
2022/07/28 12:29:14;;;;;;;;;;;;;;;;;;4988251;28;19935;-50
2022/07/28 12:31:42;;;;;;;;;;;;;;;;;;4988068;28;19971;-49
2022/07/28 12:34:11;;;;;;;;;;;;;;;;;;4998677;28;19925;-52
2022/07/28 12:36:37;;;;;;;;;;;;;;;;;;4999500;28;19918;-52
2022/07/28 12:39:03;;;;;;;;;;;;;;;;;;4994856;28;19935;-53
2022/07/28 12:41:29;;;;;;;;;;;;;;;;;;5002731;28;19918;-54
2022/07/28 12:43:55;;;;;;;;;;;;;;;;;;5007509;28;20721;-53
2022/07/28 12:46:21;;;;;;;;;;;;;;;;;;5007552;28;19913;-52
2022/07/28 12:48:47;;;;;;;;;;;;;;;;;;5005448;28;19913;-51
2022/07/28 12:51:13;;;;;;;;;;;;;;;;;;5006640;28;19917;-53
2022/07/28 12:53:39;;;;;;;;;;;;;;;;;;5005722;28;19964;-52
2022/07/28 12:56:04;;;;;;;;;;;;;;;;;;5006403;28;19914;-53
2022/07/28 12:58:30;;;;;;;;;;;;;;;;;;5006547;28;20317;-53
2022/07/28 13:00:56;;;;;;;;;;;;;;;;;;5006367;28;19916;-53
2022/07/28 13:03:23;;;;;;;;;;;;;;;;;;5007564;28;19909;-53
2022/07/28 13:06:04;;;;;;;;;;;;;;;;;;5006154;28;19913;-53
2022/07/28 13:08:30;;;;;;;;;;;;;;;;;;5006475;28;20392;-52
2022/07/28 13:10:56;;;;;;;;;;;;;;;;;;5006920;28;20004;-51
2022/07/28 13:13:21;;;;;;;;;;;;;;;;;;5006899;28;19914;-52
2022/07/28 13:15:47;;;;;;;;;;;;;;;;;;5005942;28;19914;-52
2022/07/28 13:18:14;;;;;;;;;;;;;;;;;;5006190;28;20477;-51
2022/07/28 13:20:40;;;;;;;;;;;;;;;;;;5005741;28;19919;-49
2022/07/28 13:23:06;;;;;;;;;;;;;;;;;;5006362;28;20289;-52
2022/07/28 13:25:33;;;;;;;;;;;;;;;;;;5005600;28;19910;-52
2022/07/28 13:27:59;;;;;;;;;;;;;;;;;;5005995;28;19961;-52
2022/07/28 13:30:24;;;;;;;;;;;;;;;;;;5004531;28;19922;-52
2022/07/28 13:32:53;;;;;;;;;;;;;;;;;;5005912;28;19921;-53
2022/07/28 13:35:21;;;;;;;;;;;;;;;;;;4994359;28;19914;-54
2022/07/28 13:37:47;;;;;;;;;;;;;;;;;;4986086;28;19910;-53
2022/07/28 13:40:13;;;;;;;;;;;;;;;;;;4986082;28;19910;-53
2022/07/28 13:42:40;;;;;;;;;;;;;;;;;;4986025;28;19984;-53
2022/07/28 13:45:06;;;;;;;;;;;;;;;;;;4986020;28;19968;-53
2022/07/28 13:47:33;;;;;;;;;;;;;;;;;;4986472;28;19909;-51
2022/07/28 13:49:59;;;;;;;;;;;;;;;;;;4985516;28;19948;-53
2022/07/28 13:52:26;;;;;;;;;;;;;;;;;;4985937;28;19917;-53
2022/07/28 13:54:52;;;;;;;;;;;;;;;;;;4989642;28;20379;-53
2022/07/28 13:57:19;;;;;;;;;;;;;;;;;;4990843;28;19913;-55
2022/07/28 13:59:45;;;;;;;;;;;;;;;;;;4997404;28;19967;-51
2022/07/28 14:02:12;;;;;;;;;;;;;;;;;;4987786;28;19913;-53
2022/07/28 14:04:38;;;;;;;;;;;;;;;;;;4988908;28;19925;-52
2022/07/28 14:07:04;;;;;;;;;;;;;;;;;;4996536;28;19910;-53
2022/07/28 14:09:29;;;;;;;;;;;;;;;;;;5006783;28;19909;-54
2022/07/28 14:11:55;;;;;;;;;;;;;;;;;;4991430;28;19917;-54
2022/07/28 14:14:23;;;;;;;;;;;;;;;;;;4992233;28;19917;-52
2022/07/28 14:16:49;;;;;;;;;;;;;;;;;;4999716;28;20003;-53
2022/07/28 14:19:16;;;;;;;;;;;;;;;;;;4989156;28;19940;-53
2022/07/28 14:21:42;;;;;;;;;;;;;;;;;;4994908;28;19948;-53
2022/07/28 14:24:08;;;;;;;;;;;;;;;;;;4996376;28;19918;-53
2022/07/28 14:26:34;;;;;;;;;;;;;;;;;;5005914;28;19913;-54
2022/07/28 14:29:00;;;;;;;;;;;;;;;;;;5003329;28;19921;-52
2022/07/28 14:31:25;;;;;;;;;;;;;;;;;;5000450;28;19917;-54
2022/07/28 14:33:51;;;;;;;;;;;;;;;;;;4986659;28;19918;-53
2022/07/28 14:36:17;;;;;;;;;;;;;;;;;;4987354;28;19922;-53
2022/07/28 14:38:44;;;;;;;;;;;;;;;;;;5003972;28;19914;-52
2022/07/28 14:41:10;;;;;;;;;;;;;;;;;;5004973;28;20014;-53
2022/07/28 14:43:36;;;;;;;;;;;;;;;;;;5001978;28;19978;-53
2022/07/28 14:46:02;;;;;;;;;;;;;;;;;;4987348;28;20368;-54
2022/07/28 14:48:29;;;;;;;;;;;;;;;;;;4990364;28;19917;-53
2022/07/28 14:50:57;;;;;;;;;;;;;;;;;;5006052;28;19923;-53
2022/07/28 14:53:23;;;;;;;;;;;;;;;;;;5000860;28;19996;-52
2022/07/28 14:55:49;;;;;;;;;;;;;;;;;;4992609;28;20039;-55
2022/07/28 14:58:16;;;;;;;;;;;;;;;;;;5006267;28;19913;-54
2022/07/28 15:00:42;;;;;;;;;;;;;;;;;;4993196;28;19926;-54
2022/07/28 15:03:08;;;;;;;;;;;;;;;;;;4989054;28;19914;-55
2022/07/28 15:05:34;;;;;;;;;;;;;;;;;;5001776;28;19936;-54
2022/07/28 15:07:59;;;;;;;;;;;;;;;;;;4990501;28;20001;-54
2022/07/28 15:10:25;;;;;;;;;;;;;;;;;;4990559;28;19913;-54
2022/07/28 15:12:51;;;;;;;;;;;;;;;;;;4990128;28;20019;-54
2022/07/28 15:15:19;;;;;;;;;;;;;;;;;;4997526;28;19922;-54
2022/07/28 15:17:46;;;;;;;;;;;;;;;;;;5009756;28;19909;-53
2022/07/28 15:20:12;;;;;;;;;;;;;;;;;;5007416;28;20000;-54
2022/07/28 15:22:38;;;;;;;;;;;;;;;;;;4989441;28;20000;-54
2022/07/28 15:25:04;;;;;;;;;;;;;;;;;;4991705;28;20402;-54
2022/07/28 15:27:30;;;;;;;;;;;;;;;;;;4993080;28;20322;-54
2022/07/28 15:29:56;;;;;;;;;;;;;;;;;;4992329;28;19964;-53
2022/07/28 15:32:22;;;;;;;;;;;;;;;;;;4988825;28;19918;-54
2022/07/28 15:34:48;;;;;;;;;;;;;;;;;;5002625;28;19921;-54
2022/07/28 15:37:14;;;;;;;;;;;;;;;;;;5009918;28;19915;-54
2022/07/28 15:39:40;;;;;;;;;;;;;;;;;;5007348;28;19968;-54
2022/07/28 15:42:06;;;;;;;;;;;;;;;;;;5009840;28;19917;-55
2022/07/28 15:44:32;;;;;;;;;;;;;;;;;;5006925;28;20441;-53
2022/07/28 15:46:58;;;;;;;;;;;;;;;;;;5009791;28;19910;-54
2022/07/28 15:49:26;;;;;;;;;;;;;;;;;;4995851;28;20448;-53
2022/07/28 15:51:52;;;;;;;;;;;;;;;;;;4994737;28;20373;-52
2022/07/28 15:54:17;;;;;;;;;;;;;;;;;;5000685;28;19979;-52
2022/07/28 15:56:43;;;;;;;;;;;;;;;;;;5010469;28;19963;-53
2022/07/28 15:59:09;;;;;;;;;;;;;;;;;;5010886;28;19914;-54
2022/07/28 16:01:35;;;;;;;;;;;;;;;;;;5011031;28;20004;-55
2022/07/28 16:04:01;;;;;;;;;;;;;;;;;;5010888;28;19917;-52
2022/07/28 16:09:12;;;;;;;;;;;;;;;;;;5008867;28;19925;-50
2022/07/28 16:11:38;;;;;;;;;;;;;;;;;;5008866;28;19913;-52
2022/07/28 16:14:04;;;;;;;;;;;;;;;;;;5009198;28;19925;-53
2022/07/28 16:16:32;;;;;;;;;;;;;;;;;;5007114;28;19914;-51
2022/07/28 16:18:58;;;;;;;;;;;;;;;;;;5008989;28;19913;-53
2022/07/28 16:21:25;;;;;;;;;;;;;;;;;;5007300;28;19914;-55
2022/07/28 16:23:52;;;;;;;;;;;;;;;;;;4999800;28;20402;-54
2022/07/28 16:26:18;;;;;;;;;;;;;;;;;;4989663;28;19918;-54
2022/07/28 16:28:44;;;;;;;;;;;;;;;;;;4988918;28;19920;-53
2022/07/28 16:31:10;;;;;;;;;;;;;;;;;;4988486;28;19956;-52
2022/07/28 16:33:37;;;;;;;;;;;;;;;;;;4988750;28;19957;-52
2022/07/28 16:36:03;;;;;;;;;;;;;;;;;;4989074;28;20165;-53
2022/07/28 16:38:29;;;;;;;;;;;;;;;;;;4988992;28;19914;-52
2022/07/28 16:40:56;;;;;;;;;;;;;;;;;;4993031;28;19920;-51
2022/07/28 16:43:22;;;;;;;;;;;;;;;;;;4992345;28;20434;-51
2022/07/28 16:45:47;;;;;;;;;;;;;;;;;;4989803;28;20033;-53